Sample Charts Sidebar
> Live data! Your data is on the web site for you to access within minutes
 
> Detailed data is easily downloaded as data file, which can be opened with Excel
 
> Charts can be customised if necessary
  Chart 1
 

(A maximum of 50 rows are displayed here. Use "Export Data" to see all rows in the date range.)
Date Collected Temperature
(Celcius)
Wind-chill
(Celcius)
Wind Speed
(km/hr)
Gust
(km/hr)
Wind Direction
(degrees)
2020-11-01 00:00 11.8 11.8 2 5 56
2020-10-31 23:00 12.1 12.1 2 5 68
2020-10-31 22:00 12.2 12.1 2 5 69
2020-10-31 21:00 11.8 11.9 2 5 51
2020-10-31 20:00 11.7 11.7 2 4 37
2020-10-31 19:00 12.7 12.8 0 1 0
2020-10-31 18:00 14.2 14.3 0 1 293
2020-10-31 17:00 16.1 16.2 1 1 270
2020-10-31 16:00 16.9 17.1 2 5 243
2020-10-31 15:00 17.3 16.9 3 7 248
2020-10-31 14:00 17.5 17.4 3 5 238
2020-10-31 13:00 17.3 16.9 3 7 252
2020-10-31 12:00 18.2 17.8 2 5 208
2020-10-31 11:00 15.5 15.5 2 5 19
2020-10-31 10:00 13.2 12.2 4 6 52
2020-10-31 09:00 8.4 7.7 3 6 46
2020-10-31 08:00 7.3 6.8 3 6 60
2020-10-31 07:00 7.3 6.9 2 5 55
2020-10-31 06:00 7.0 6.6 3 6 51
2020-10-31 05:00 7.2 6.1 4 8 42
2020-10-31 04:00 7.4 7.0 3 6 56
2020-10-31 03:00 7.7 6.5 4 7 63
2020-10-31 02:00 7.8 7.7 2 5 69
2020-10-31 01:00 7.6 7.5 2 6 71
2020-10-31 00:00 7.2 7.3 1 2 28
2020-10-30 23:00 8.3 8.3 1 3 44
2020-10-30 22:00 9.9 10.0 1 2 1
2020-10-30 21:00 11.9 12.0 0 2 53
2020-10-30 20:00 12.9 12.8 2 5 117
2020-10-30 19:00 13.1 13.2 1 2 103
2020-10-30 18:00 14.5 14.5 1 3 109
2020-10-30 17:00 15.3 15.2 2 6 167
2020-10-30 16:00 16.0 15.6 3 6 155
2020-10-30 15:00 16.6 16.5 2 5 119
2020-10-30 14:00 16.4 15.8 2 11 70
2020-10-30 13:00 16.2 15.8 2 6 151
2020-10-30 12:00 15.3 14.6 3 8 132
2020-10-30 11:00 13.0 12.9 1 4 289
2020-10-30 10:00 11.1 10.9 1 2 40
2020-10-30 09:00 9.7 9.6 1 3 36
2020-10-30 08:00 7.9 7.8 2 5 53
2020-10-30 07:00 7.2 6.7 2 5 36
2020-10-30 06:00 5.9 5.9 1 4 26
2020-10-30 05:00 6.7 6.8 0 2 35
2020-10-30 04:00 7.6 7.6 1 4 38
2020-10-30 03:00 7.5 7.4 1 2 38
2020-10-30 02:00 6.9 6.7 2 6 43
2020-10-30 01:00 5.9 5.8 2 5 38
2020-10-30 00:00 5.0 5.0 1 3 45
2020-10-29 23:00 5.7 5.7 0 3 11